createdAt,value
2022-08-17T00:03:39.146Z,18.17
2022-08-17T00:07:20.964Z,18.48
2022-08-17T00:11:07.162Z,19.38
2022-08-17T00:14:50.403Z,19.55
2022-08-17T00:19:06.830Z,20.98
2022-08-17T00:22:36.753Z,20.42
2022-08-17T00:26:34.865Z,20.60
2022-08-17T00:30:22.029Z,21.17
2022-08-17T00:34:05.207Z,20.27
2022-08-17T00:37:47.012Z,20.33
2022-08-17T00:41:29.444Z,19.88
2022-08-17T00:45:14.773Z,21.38
2022-08-17T00:48:57.653Z,21.70
2022-08-17T00:52:47.786Z,21.63
2022-08-17T00:56:36.345Z,20.83
2022-08-17T01:00:26.646Z,21.80
2022-08-17T01:04:09.749Z,22.23
2022-08-17T01:07:52.559Z,21.88
2022-08-17T01:11:36.339Z,22.70
2022-08-17T01:15:18.309Z,23.08
2022-08-17T01:19:06.313Z,23.38
2022-08-17T01:22:48.306Z,22.70
2022-08-17T01:26:32.884Z,22.17
2022-08-17T01:30:58.066Z,21.80
2022-08-17T01:34:18.912Z,21.85
2022-08-17T01:38:00.753Z,21.05
2022-08-17T01:41:44.979Z,18.88
2022-08-17T01:45:33.715Z,19.13
2022-08-17T01:49:15.889Z,19.98
2022-08-17T01:53:03.241Z,20.70
2022-08-17T01:56:49.435Z,19.80
2022-08-17T02:00:59.735Z,21.50
2022-08-17T02:04:33.537Z,21.02
2022-08-17T02:08:20.045Z,20.70
2022-08-17T02:12:37.421Z,22.10
2022-08-17T02:16:06.817Z,22.13
2022-08-17T02:19:48.730Z,21.73
2022-08-17T02:23:34.458Z,21.70
2022-08-17T02:27:16.307Z,21.30
2022-08-17T02:31:03.825Z,22.02
2022-08-17T02:34:45.732Z,21.08
2022-08-17T02:38:27.645Z,22.23
2022-08-17T02:42:09.604Z,20.33
2022-08-17T02:45:51.827Z,21.25
2022-08-17T02:49:34.319Z,20.30
2022-08-17T02:53:16.627Z,22.33
2022-08-17T02:56:58.454Z,22.23
2022-08-17T03:00:43.547Z,22.13
2022-08-17T03:04:25.412Z,21.77
2022-08-17T03:08:13.247Z,21.90
2022-08-17T03:11:56.182Z,22.15
2022-08-17T03:15:40.663Z,21.77
2022-08-17T03:19:25.760Z,22.17
2022-08-17T03:23:07.970Z,22.50
2022-08-17T03:26:51.569Z,23.63
2022-08-17T03:30:34.328Z,22.25
2022-08-17T03:34:16.704Z,22.08
2022-08-17T03:38:00.434Z,22.73
2022-08-17T03:41:42.899Z,23.13
2022-08-17T03:45:45.977Z,22.13
2022-08-17T03:49:46.541Z,23.10
2022-08-17T03:53:46.849Z,25.80
2022-08-17T03:57:29.218Z,24.17
2022-08-17T04:01:11.151Z,23.02
2022-08-17T04:04:53.881Z,24.13
2022-08-17T04:08:35.801Z,24.80
2022-08-17T04:12:19.539Z,24.55
2022-08-17T04:16:01.450Z,25.05
2022-08-17T04:19:43.724Z,23.25
2022-08-17T04:23:32.671Z,24.52
2022-08-17T04:27:14.495Z,25.23
2022-08-17T04:30:56.425Z,25.42
2022-08-17T04:34:38.292Z,27.63
2022-08-17T04:38:28.864Z,28.55
2022-08-17T04:42:17.249Z,26.48
2022-08-17T04:46:02.291Z,28.35
2022-08-17T04:49:44.125Z,26.65
2022-08-17T04:53:26.442Z,29.08
2022-08-17T04:57:08.306Z,27.75
2022-08-17T05:00:50.653Z,27.95
2022-08-17T05:04:33.950Z,27.77
2022-08-17T05:08:18.991Z,28.30
2022-08-17T05:12:02.480Z,28.25
2022-08-17T05:15:47.582Z,29.60
2022-08-17T05:19:29.824Z,31.08
2022-08-17T05:23:14.861Z,29.55
2022-08-17T05:26:56.663Z,30.52
2022-08-17T05:30:40.289Z,27.55
2022-08-17T05:34:23.301Z,26.90
2022-08-17T05:38:06.017Z,29.55
2022-08-17T05:41:48.350Z,28.95
2022-08-17T05:45:54.715Z,28.50
2022-08-17T05:49:33.631Z,29.75
2022-08-17T05:53:46.488Z,29.52
2022-08-17T05:58:07.482Z,30.33
2022-08-17T06:02:17.026Z,29.60
2022-08-17T06:06:25.113Z,30.67
2022-08-17T06:10:40.956Z,29.27
2022-08-17T06:14:35.683Z,29.92
2022-08-17T06:18:19.248Z,32.00
2022-08-17T06:22:03.397Z,30.17
2022-08-17T06:25:49.395Z,29.02
2022-08-17T06:30:05.434Z,28.92
2022-08-17T06:37:48.888Z,27.98
2022-08-17T06:41:55.769Z,27.00
2022-08-17T06:45:49.509Z,28.38
2022-08-17T06:49:40.465Z,26.33
2022-08-17T06:53:25.364Z,27.83
2022-08-17T06:57:19.646Z,26.67
2022-08-17T07:01:12.435Z,25.58
2022-08-17T07:04:54.513Z,25.95
2022-08-17T07:08:48.180Z,26.23
2022-08-17T07:12:38.456Z,25.70
2022-08-17T07:16:41.269Z,24.92
2022-08-17T07:20:23.165Z,24.77
2022-08-17T07:24:30.233Z,23.52
2022-08-17T07:28:13.010Z,24.88
2022-08-17T07:31:55.732Z,24.48
2022-08-17T07:35:41.458Z,24.50
2022-08-17T07:39:29.068Z,22.60
2022-08-17T07:43:23.138Z,21.92
2022-08-17T07:47:33.787Z,20.55
2022-08-17T07:51:37.920Z,19.90
2022-08-17T07:55:41.502Z,18.90
2022-08-17T07:59:35.015Z,18.23
2022-08-17T08:03:27.234Z,17.17
2022-08-17T08:07:20.769Z,18.13
2022-08-17T08:11:10.432Z,17.30
2022-08-17T08:15:14.205Z,16.10
2022-08-17T08:18:59.685Z,16.83
2022-08-17T08:23:02.489Z,15.73
2022-08-17T08:26:56.709Z,16.10
2022-08-17T08:30:49.279Z,15.70
2022-08-17T08:35:01.966Z,15.27
2022-08-17T08:39:16.108Z,14.85
2022-08-17T08:43:04.503Z,15.02
2022-08-17T08:47:00.181Z,15.75
2022-08-17T08:51:05.471Z,16.08
2022-08-17T08:55:35.630Z,15.25
2022-08-17T08:59:26.218Z,17.00
2022-08-17T09:03:52.691Z,16.55
2022-08-17T09:08:10.660Z,16.00
2022-08-17T09:12:22.016Z,16.90
2022-08-17T09:16:14.742Z,16.63
2022-08-17T09:20:06.316Z,17.70
2022-08-17T09:24:04.745Z,17.50
2022-08-17T09:27:54.258Z,17.17
2022-08-17T09:32:08.325Z,15.55
2022-08-17T09:36:04.469Z,16.13
2022-08-17T09:40:08.599Z,15.10
2022-08-17T09:43:57.055Z,15.82
2022-08-17T09:47:50.461Z,15.77
2022-08-17T09:51:36.597Z,15.52
2022-08-17T09:59:17.276Z,14.48
2022-08-17T10:03:09.566Z,15.98
2022-08-17T10:07:07.511Z,16.27
2022-08-17T10:11:55.857Z,15.63
2022-08-17T10:15:54.684Z,14.50
2022-08-17T10:19:44.880Z,14.38
2022-08-17T10:23:48.050Z,14.63
2022-08-17T10:27:52.667Z,14.35
2022-08-17T10:32:09.271Z,12.70
2022-08-17T10:35:57.230Z,12.00
2022-08-17T10:40:09.800Z,12.05
2022-08-17T10:44:38.145Z,11.80
2022-08-17T10:48:13.184Z,9.93
2022-08-17T10:51:58.123Z,10.43
2022-08-17T10:55:41.071Z,11.40
2022-08-17T10:59:34.972Z,11.20
2022-08-17T11:03:23.677Z,10.82
2022-08-17T11:07:33.880Z,11.35
2022-08-17T11:11:15.715Z,11.10
2022-08-17T11:15:00.560Z,10.55
2022-08-17T11:18:52.634Z,10.57
2022-08-17T11:22:43.376Z,11.25
2022-08-17T11:26:29.889Z,10.70
2022-08-17T11:30:15.460Z,11.60
2022-08-17T11:34:04.686Z,10.38
2022-08-17T11:38:02.488Z,10.63
2022-08-17T11:42:02.615Z,12.18
2022-08-17T11:45:50.588Z,12.05
2022-08-17T11:50:27.850Z,10.95
2022-08-17T11:54:34.844Z,9.65
2022-08-17T11:58:41.092Z,9.45
2022-08-17T12:02:29.862Z,9.45
2022-08-17T12:06:34.497Z,9.38
2022-08-17T12:10:21.823Z,8.95
2022-08-17T12:14:05.022Z,8.77
2022-08-17T12:17:55.063Z,9.80
2022-08-17T12:22:14.881Z,8.82
2022-08-17T12:26:30.346Z,9.30
2022-08-17T12:30:15.688Z,9.43
2022-08-17T12:33:57.911Z,8.82
2022-08-17T12:37:49.272Z,7.82
2022-08-17T12:41:39.006Z,8.65
2022-08-17T12:45:24.856Z,7.57
2022-08-17T12:49:29.600Z,8.85
2022-08-17T12:53:22.643Z,7.18
2022-08-17T12:57:11.396Z,8.25
2022-08-17T13:01:04.390Z,7.30
2022-08-17T13:04:46.725Z,7.20
2022-08-17T13:08:38.666Z,6.55
2022-08-17T13:12:27.941Z,7.10
2022-08-17T13:16:12.954Z,6.30
2022-08-17T13:19:55.232Z,6.47
2022-08-17T13:23:37.208Z,6.20
2022-08-17T13:27:21.539Z,5.97
2022-08-17T13:31:32.984Z,6.53
2022-08-17T13:35:50.327Z,5.82
2022-08-17T13:39:41.429Z,5.85
2022-08-17T13:43:44.635Z,5.28
2022-08-17T13:47:27.569Z,4.85
2022-08-17T13:51:52.119Z,5.13
2022-08-17T13:55:36.564Z,5.30
2022-08-17T13:59:52.925Z,4.70
2022-08-17T14:03:41.963Z,5.13
2022-08-17T14:07:30.769Z,4.60
2022-08-17T14:11:12.652Z,4.13
2022-08-17T14:14:56.433Z,4.18
2022-08-17T14:18:56.061Z,3.10
2022-08-17T14:22:44.306Z,2.92
2022-08-17T14:26:26.110Z,1.95
2022-08-17T14:30:08.393Z,2.70
2022-08-17T14:33:50.302Z,2.50
2022-08-17T14:37:34.400Z,2.30
2022-08-17T14:41:21.450Z,2.58
2022-08-17T14:45:06.246Z,2.35
2022-08-17T14:49:10.741Z,2.97
2022-08-17T14:52:52.754Z,2.23
2022-08-17T14:56:38.650Z,2.45
2022-08-17T15:00:20.547Z,2.65
2022-08-17T15:04:03.556Z,3.10
2022-08-17T15:07:45.732Z,2.58
2022-08-17T15:11:27.693Z,2.92
2022-08-17T15:15:12.886Z,2.63
2022-08-17T15:18:54.783Z,2.58
2022-08-17T15:22:40.256Z,2.53
2022-08-17T15:26:26.170Z,3.07
2022-08-17T15:30:09.997Z,2.47
2022-08-17T15:33:52.349Z,2.88
2022-08-17T15:37:34.323Z,2.65
2022-08-17T15:41:18.400Z,2.45
2022-08-17T15:45:09.795Z,3.20
2022-08-17T15:49:00.073Z,3.30
2022-08-17T15:52:44.889Z,3.45
2022-08-17T15:56:28.809Z,3.25
2022-08-17T16:00:11.423Z,3.03
2022-08-17T16:04:04.035Z,3.15
2022-08-17T16:07:50.232Z,3.10
2022-08-17T16:11:32.179Z,3.20
2022-08-17T16:15:14.227Z,3.85
2022-08-17T16:18:59.270Z,3.08
2022-08-17T16:22:44.382Z,3.73
2022-08-17T16:26:27.657Z,2.63
2022-08-17T16:30:16.419Z,3.10
2022-08-17T16:34:17.645Z,2.75
2022-08-17T16:38:00.456Z,3.35
2022-08-17T16:41:45.329Z,2.75
2022-08-17T16:45:29.418Z,3.22
2022-08-17T16:49:29.662Z,3.10
2022-08-17T16:53:18.361Z,2.88
2022-08-17T16:57:00.262Z,2.70
2022-08-17T17:00:44.221Z,2.28
2022-08-17T17:04:26.554Z,2.53
2022-08-17T17:08:40.712Z,2.70
2022-08-17T17:12:59.601Z,2.83
2022-08-17T17:17:00.183Z,2.50
2022-08-17T17:20:54.135Z,2.42
2022-08-17T17:24:54.924Z,2.85
2022-08-17T17:29:03.884Z,2.40
2022-08-17T17:32:48.645Z,1.95
2022-08-17T17:36:41.532Z,2.22
2022-08-17T17:40:54.620Z,2.35
2022-08-17T17:44:50.067Z,2.58
2022-08-17T17:48:32.008Z,2.50
2022-08-17T17:52:57.071Z,2.30
2022-08-17T17:56:45.207Z,1.70
2022-08-17T18:00:36.985Z,2.13
2022-08-17T18:04:37.482Z,1.88
2022-08-17T18:08:37.296Z,2.30
2022-08-17T18:12:22.713Z,2.10
2022-08-17T18:16:08.314Z,2.42
2022-08-17T18:19:50.153Z,2.78
2022-08-17T18:23:33.213Z,2.45
2022-08-17T18:27:26.100Z,2.42
2022-08-17T18:31:15.030Z,2.30
2022-08-17T18:35:09.422Z,2.30
2022-08-17T18:39:16.804Z,2.40
2022-08-17T18:43:00.373Z,2.08
2022-08-17T18:46:42.250Z,2.55
2022-08-17T18:50:34.739Z,2.22
2022-08-17T18:54:25.767Z,1.88
2022-08-17T18:58:20.162Z,2.85
2022-08-17T19:02:41.772Z,2.10
2022-08-17T19:06:32.045Z,2.40
2022-08-17T19:10:46.057Z,2.60
2022-08-17T19:14:30.174Z,2.17
2022-08-17T19:18:29.456Z,2.20
2022-08-17T19:22:29.356Z,2.10
2022-08-17T19:26:54.647Z,2.60
2022-08-17T19:30:29.455Z,2.20
2022-08-17T19:34:17.025Z,2.78
2022-08-17T19:38:26.612Z,2.10
2022-08-17T19:42:47.668Z,2.40
2022-08-17T19:47:00.688Z,2.10
2022-08-17T19:50:58.149Z,2.65
2022-08-17T19:54:45.429Z,2.40
2022-08-17T19:58:37.862Z,2.72
2022-08-17T20:02:27.674Z,2.40
2022-08-17T20:06:13.541Z,3.00
2022-08-17T20:10:07.960Z,2.22
2022-08-17T20:14:07.990Z,2.95
2022-08-17T20:17:51.055Z,2.72
2022-08-17T20:21:39.230Z,2.53
2022-08-17T20:25:46.745Z,2.50
2022-08-17T20:29:40.329Z,2.40
2022-08-17T20:33:24.149Z,2.40
2022-08-17T20:37:08.592Z,2.95
2022-08-17T20:40:57.417Z,3.00
2022-08-17T20:44:41.074Z,2.58
2022-08-17T20:48:38.110Z,2.50
2022-08-17T20:52:35.963Z,2.50
2022-08-17T20:56:43.223Z,2.70
2022-08-17T21:00:28.072Z,2.40
2022-08-17T21:05:07.258Z,2.85
2022-08-17T21:09:15.013Z,2.88
2022-08-17T21:13:13.933Z,2.90
2022-08-17T21:17:17.527Z,2.83
2022-08-17T21:21:21.718Z,2.42
2022-08-17T21:25:12.389Z,2.83
2022-08-17T21:29:29.479Z,3.10
2022-08-17T21:33:31.481Z,2.15
2022-08-17T21:37:22.395Z,2.65
2022-08-17T21:41:06.256Z,3.13
2022-08-17T21:44:50.949Z,3.35
2022-08-17T21:48:42.792Z,3.22
2022-08-17T21:52:26.969Z,3.03
2022-08-17T21:56:11.343Z,3.30
2022-08-17T22:00:01.657Z,3.10
2022-08-17T22:03:45.808Z,3.35
2022-08-17T22:07:41.575Z,2.70
2022-08-17T22:11:23.464Z,3.22
2022-08-17T22:15:09.526Z,3.00
2022-08-17T22:18:53.700Z,3.10
2022-08-17T22:22:56.809Z,2.72
2022-08-17T22:27:11.583Z,3.35
2022-08-17T22:31:04.975Z,3.13
2022-08-17T22:35:06.736Z,3.22
2022-08-17T22:38:50.277Z,3.08
2022-08-17T22:42:32.990Z,2.80
2022-08-17T22:46:15.618Z,3.13
2022-08-17T22:50:01.655Z,3.05
2022-08-17T22:54:08.848Z,2.88
2022-08-17T22:58:10.328Z,3.25
2022-08-17T23:02:12.713Z,3.20
2022-08-17T23:06:10.750Z,2.75
2022-08-17T23:09:53.215Z,3.60
2022-08-17T23:13:37.722Z,3.30
2022-08-17T23:17:19.600Z,3.38
2022-08-17T23:21:01.493Z,4.15
2022-08-17T23:24:49.972Z,3.60
2022-08-17T23:28:33.016Z,4.30
2022-08-17T23:32:17.493Z,3.50
2022-08-17T23:35:59.452Z,3.65
2022-08-17T23:39:44.577Z,3.78
2022-08-17T23:43:28.221Z,4.22
2022-08-17T23:47:11.636Z,3.83
2022-08-17T23:50:57.223Z,4.25
2022-08-17T23:54:48.848Z,4.38
2022-08-17T23:58:32.337Z,5.03
